createdAt,value
2019-03-24T00:00:35.751Z,10.90
2019-03-24T00:03:07.596Z,10.90
2019-03-24T00:05:39.299Z,10.90
2019-03-24T00:08:12.450Z,10.90
2019-03-24T00:10:54.306Z,11.00
2019-03-24T00:13:26.882Z,11.00
2019-03-24T00:16:15.650Z,11.00
2019-03-24T00:18:47.074Z,11.00
2019-03-24T00:21:41.365Z,11.10
2019-03-24T00:24:13.647Z,11.10
2019-03-24T00:26:43.330Z,11.10
2019-03-24T00:29:13.251Z,11.00
2019-03-24T00:31:43.386Z,10.90
2019-03-24T00:34:13.703Z,10.90
2019-03-24T00:36:43.468Z,11.00
2019-03-24T00:39:13.668Z,11.00
2019-03-24T00:41:43.646Z,11.00
2019-03-24T00:44:15.430Z,10.90
2019-03-24T00:46:46.584Z,10.80
2019-03-24T00:49:16.709Z,10.80
2019-03-24T00:51:46.619Z,10.80
2019-03-24T00:54:16.834Z,10.90
2019-03-24T00:56:46.721Z,10.90
2019-03-24T00:59:16.493Z,10.90
2019-03-24T01:02:01.063Z,10.70
2019-03-24T01:04:40.820Z,10.60
2019-03-24T01:07:34.360Z,10.50
2019-03-24T01:10:05.557Z,10.40
2019-03-24T01:12:37.479Z,10.40
2019-03-24T01:15:09.056Z,10.30
2019-03-24T01:17:39.158Z,10.20
2019-03-24T01:20:09.330Z,10.30
2019-03-24T01:22:39.157Z,10.20
2019-03-24T01:25:10.430Z,10.20
2019-03-24T01:27:40.358Z,10.20
2019-03-24T01:30:10.469Z,10.20
2019-03-24T01:32:40.437Z,10.20
2019-03-24T01:35:10.366Z,10.10
2019-03-24T01:37:40.727Z,10.00
2019-03-24T01:40:11.946Z,10.00
2019-03-24T01:42:43.000Z,10.00
2019-03-24T01:45:13.718Z,9.90
2019-03-24T01:47:43.707Z,9.90
2019-03-24T01:50:13.750Z,9.90
2019-03-24T01:52:44.557Z,9.80
2019-03-24T01:55:14.504Z,9.80
2019-03-24T01:57:44.307Z,9.70
2019-03-24T02:00:14.741Z,9.70
2019-03-24T02:02:45.059Z,9.70
2019-03-24T02:05:14.953Z,9.70
2019-03-24T02:07:44.799Z,9.70
2019-03-24T02:10:16.111Z,9.80
2019-03-24T02:12:46.223Z,9.70
2019-03-24T02:15:16.126Z,9.80
2019-03-24T02:17:46.384Z,9.80
2019-03-24T02:20:16.876Z,9.80
2019-03-24T02:22:47.317Z,9.80
2019-03-24T02:25:17.167Z,9.70
2019-03-24T02:27:47.135Z,9.70
2019-03-24T02:30:17.561Z,9.70
2019-03-24T02:32:47.615Z,9.70
2019-03-24T02:35:17.720Z,9.70
2019-03-24T02:37:47.798Z,9.70
2019-03-24T02:40:17.789Z,9.60
2019-03-24T02:42:47.708Z,9.60
2019-03-24T02:45:17.669Z,9.60
2019-03-24T02:47:48.903Z,9.60
2019-03-24T02:50:18.815Z,9.50
2019-03-24T02:52:49.028Z,9.50
2019-03-24T02:55:19.363Z,9.50
2019-03-24T02:57:49.243Z,9.50
2019-03-24T03:00:19.247Z,9.50
2019-03-24T03:02:49.633Z,9.50
2019-03-24T03:05:19.436Z,9.50
2019-03-24T03:07:49.714Z,9.50
2019-03-24T03:10:20.048Z,9.50
2019-03-24T03:12:49.960Z,9.50
2019-03-24T03:15:20.724Z,9.50
2019-03-24T03:17:50.484Z,9.50
2019-03-24T03:20:20.440Z,9.50
2019-03-24T03:22:50.651Z,9.50
2019-03-24T03:25:20.745Z,9.50
2019-03-24T03:27:50.625Z,9.50
2019-03-24T03:30:21.420Z,9.50
2019-03-24T03:32:51.680Z,9.50
2019-03-24T03:35:23.438Z,9.40
2019-03-24T03:37:53.819Z,9.40
2019-03-24T03:40:23.642Z,9.50
2019-03-24T03:42:53.837Z,9.40
2019-03-24T03:45:28.962Z,9.40
2019-03-24T03:47:59.730Z,9.40
2019-03-24T03:50:29.591Z,9.40
2019-03-24T03:52:59.797Z,9.50
2019-03-24T03:55:29.704Z,9.50
2019-03-24T03:58:02.763Z,9.40
2019-03-24T04:00:34.777Z,9.40
2019-03-24T04:03:05.486Z,9.40
2019-03-24T04:05:35.518Z,9.40
2019-03-24T04:08:05.752Z,9.40
2019-03-24T04:10:35.457Z,9.40
2019-03-24T04:13:05.230Z,9.40
2019-03-24T04:15:35.028Z,9.40
2019-03-24T04:18:04.856Z,9.40
2019-03-24T04:20:34.552Z,9.50
2019-03-24T04:23:04.350Z,9.40
2019-03-24T04:25:34.081Z,9.40
2019-03-24T04:28:04.966Z,9.50
2019-03-24T04:30:34.753Z,9.40
2019-03-24T04:33:04.586Z,9.40
2019-03-24T04:35:35.691Z,9.40
2019-03-24T04:38:05.511Z,9.30
2019-03-24T04:40:35.287Z,9.40
2019-03-24T04:43:05.085Z,9.30
2019-03-24T04:45:34.932Z,9.40
2019-03-24T04:48:05.202Z,9.40
2019-03-24T04:50:35.220Z,9.40
2019-03-24T04:53:05.061Z,9.40
2019-03-24T04:55:34.891Z,9.40
2019-03-24T04:58:04.944Z,9.40
2019-03-24T05:00:39.159Z,9.40
2019-03-24T05:03:09.288Z,9.40
2019-03-24T05:05:39.444Z,9.50
2019-03-24T05:08:12.747Z,9.50
2019-03-24T05:10:44.833Z,9.50
2019-03-24T05:13:14.583Z,9.60
2019-03-24T05:15:44.290Z,9.60
2019-03-24T05:18:16.097Z,9.60
2019-03-24T05:20:45.841Z,9.60
2019-03-24T05:23:15.666Z,9.70
2019-03-24T05:25:46.547Z,9.70
2019-03-24T05:28:16.391Z,9.70
2019-03-24T05:30:48.259Z,9.70
2019-03-24T05:33:18.083Z,9.60
2019-03-24T05:35:47.812Z,9.60
2019-03-24T05:38:17.682Z,9.70
2019-03-24T05:40:47.529Z,9.70
2019-03-24T05:43:17.266Z,9.70
2019-03-24T05:45:47.095Z,9.80
2019-03-24T05:48:16.850Z,9.80
2019-03-24T05:50:46.564Z,9.90
2019-03-24T05:53:16.359Z,10.00
2019-03-24T05:55:46.183Z,10.00
2019-03-24T05:58:15.951Z,10.00
2019-03-24T06:00:45.679Z,10.00
2019-03-24T06:03:15.421Z,10.00
2019-03-24T06:05:45.222Z,10.00
2019-03-24T06:08:14.946Z,9.90
2019-03-24T06:10:44.845Z,9.90
2019-03-24T06:13:14.621Z,9.90
2019-03-24T06:15:44.418Z,9.90
2019-03-24T06:18:14.256Z,9.90
2019-03-24T06:20:44.126Z,9.90
2019-03-24T06:23:13.919Z,9.90
2019-03-24T06:25:43.870Z,9.90
2019-03-24T06:28:13.682Z,9.90
2019-03-24T06:30:43.398Z,9.90
2019-03-24T06:35:42.228Z,9.80
2019-03-24T06:38:13.926Z,9.80
2019-03-24T06:40:43.632Z,9.90
2019-03-24T06:43:13.387Z,9.80
2019-03-24T06:45:43.500Z,9.80
2019-03-24T06:48:13.249Z,9.80
2019-03-24T06:50:43.033Z,9.80
2019-03-24T06:53:12.802Z,9.90
2019-03-24T06:55:42.543Z,9.90
2019-03-24T06:58:12.409Z,9.90
2019-03-24T07:00:42.182Z,9.90
2019-03-24T07:03:13.419Z,9.90
2019-03-24T07:05:43.190Z,9.90
2019-03-24T07:08:13.004Z,10.00
2019-03-24T07:10:42.778Z,10.00
2019-03-24T07:13:12.618Z,10.00
2019-03-24T07:15:42.589Z,10.10
2019-03-24T07:18:12.329Z,10.00
2019-03-24T07:20:42.172Z,10.00
2019-03-24T07:23:11.965Z,10.00
2019-03-24T07:25:41.821Z,10.10
2019-03-24T07:28:11.630Z,10.00
2019-03-24T07:30:41.493Z,10.00
2019-03-24T07:33:11.312Z,10.00
2019-03-24T07:35:41.182Z,10.00
2019-03-24T07:38:10.899Z,10.00
2019-03-24T07:40:40.661Z,10.00
2019-03-24T07:43:10.430Z,10.00
2019-03-24T07:45:40.265Z,10.10
2019-03-24T07:48:18.714Z,10.10
2019-03-24T07:50:41.510Z,10.20
2019-03-24T07:53:11.360Z,10.20
2019-03-24T07:55:41.082Z,10.20
2019-03-24T07:58:10.854Z,10.20
2019-03-24T08:00:41.688Z,10.20
2019-03-24T08:03:11.396Z,10.30
2019-03-24T08:05:41.761Z,10.30
2019-03-24T08:08:11.597Z,10.30
2019-03-24T08:10:41.510Z,10.30
2019-03-24T08:13:11.274Z,10.40
2019-03-24T08:15:41.034Z,10.40
2019-03-24T08:18:10.798Z,10.40
2019-03-24T08:20:40.560Z,10.50
2019-03-24T08:23:10.397Z,10.40
2019-03-24T08:25:40.157Z,10.40
2019-03-24T08:28:09.979Z,10.40
2019-03-24T08:30:39.720Z,10.50
2019-03-24T08:33:09.670Z,10.50
2019-03-24T08:35:39.507Z,10.60
2019-03-24T08:38:09.426Z,10.60
2019-03-24T08:40:39.178Z,10.70
2019-03-24T08:43:08.994Z,10.70
2019-03-24T08:45:38.862Z,10.80
2019-03-24T08:48:08.866Z,10.80
2019-03-24T08:50:38.700Z,10.70
2019-03-24T08:53:08.546Z,10.70
2019-03-24T08:55:38.285Z,10.70
2019-03-24T08:58:08.193Z,10.90
2019-03-24T09:00:38.030Z,11.00
2019-03-24T09:03:07.919Z,11.00
2019-03-24T09:05:37.640Z,11.00
2019-03-24T09:08:07.558Z,11.00
2019-03-24T09:10:37.446Z,11.00
2019-03-24T09:13:07.183Z,11.00
2019-03-24T09:15:37.056Z,11.00
2019-03-24T09:18:06.869Z,11.00
2019-03-24T09:20:41.523Z,11.00
2019-03-24T09:23:10.573Z,11.00
2019-03-24T09:25:39.869Z,11.00
2019-03-24T09:28:09.621Z,10.90
2019-03-24T09:30:40.416Z,11.00
2019-03-24T09:33:09.312Z,11.00
2019-03-24T09:35:39.106Z,11.10
2019-03-24T09:38:08.947Z,11.10
2019-03-24T09:40:41.493Z,11.10
2019-03-24T09:43:11.430Z,11.10
2019-03-24T09:45:41.240Z,11.10
2019-03-24T09:48:13.417Z,11.10
2019-03-24T09:50:43.235Z,11.10
2019-03-24T09:53:13.133Z,11.20
2019-03-24T09:55:42.983Z,11.30
2019-03-24T10:10:40.761Z,11.70
2019-03-24T10:13:13.324Z,11.70
2019-03-24T10:15:43.343Z,11.80
2019-03-24T10:18:16.861Z,11.80
2019-03-24T10:20:46.655Z,11.80
2019-03-24T10:23:18.870Z,11.90
2019-03-24T10:29:32.145Z,12.00
2019-03-24T10:32:02.036Z,11.90
2019-03-24T10:34:33.847Z,11.90
2019-03-24T10:37:04.172Z,11.90
2019-03-24T10:39:34.806Z,11.90
2019-03-24T10:42:04.606Z,12.00
2019-03-24T10:45:07.252Z,12.20
2019-03-24T10:47:37.654Z,12.50
2019-03-24T10:50:09.559Z,12.60
2019-03-24T10:52:42.270Z,12.80
2019-03-24T10:55:16.092Z,12.90
2019-03-24T10:57:47.076Z,13.10
2019-03-24T11:00:27.943Z,13.10
2019-03-24T11:02:57.890Z,13.40
2019-03-24T11:05:27.808Z,13.60
2019-03-24T11:07:57.546Z,13.70
2019-03-24T11:10:27.330Z,14.10
2019-03-24T11:12:57.486Z,14.20
2019-03-24T11:15:27.455Z,14.70
2019-03-24T11:17:57.199Z,14.90
2019-03-24T11:20:28.236Z,15.20
2019-03-24T11:22:58.011Z,15.60
2019-03-24T11:25:34.768Z,16.30
2019-03-24T11:28:05.476Z,16.70
2019-03-24T11:30:36.768Z,17.20
2019-03-24T11:33:06.708Z,17.30
2019-03-24T11:35:40.103Z,17.40
2019-03-24T11:38:09.984Z,17.30
2019-03-24T11:40:39.834Z,17.30
2019-03-24T11:43:09.685Z,17.20
2019-03-24T11:45:39.667Z,17.00
2019-03-24T11:48:09.517Z,17.00
2019-03-24T11:50:39.423Z,17.10
2019-03-24T11:53:09.333Z,17.30
2019-03-24T11:55:39.235Z,17.40
2019-03-24T11:58:08.998Z,17.30
2019-03-24T12:00:40.144Z,17.20
2019-03-24T12:03:12.095Z,17.00
2019-03-24T12:05:41.827Z,17.00
2019-03-24T12:08:11.564Z,16.90
2019-03-24T12:10:41.336Z,16.90
2019-03-24T12:13:11.162Z,16.70
2019-03-24T12:15:42.038Z,16.80
2019-03-24T12:18:12.066Z,16.90
2019-03-24T12:20:42.062Z,16.70
2019-03-24T12:23:11.930Z,16.60
2019-03-24T12:25:41.752Z,16.60
2019-03-24T12:28:11.598Z,16.40
2019-03-24T12:30:45.521Z,16.50
2019-03-24T12:33:15.478Z,16.40
2019-03-24T12:35:45.326Z,16.20
2019-03-24T12:38:15.305Z,15.80
2019-03-24T12:40:45.146Z,15.90
2019-03-24T12:43:19.686Z,15.70
2019-03-24T12:45:47.515Z,15.50
2019-03-24T12:48:17.482Z,15.20
2019-03-24T12:50:47.312Z,15.10
2019-03-24T12:53:18.747Z,14.90
2019-03-24T12:55:48.632Z,15.00
2019-03-24T12:58:19.335Z,14.80
2019-03-24T13:00:49.270Z,14.70
2019-03-24T13:03:19.245Z,14.60
2019-03-24T13:05:49.112Z,14.40
2019-03-24T13:08:22.184Z,14.40
2019-03-24T13:10:56.350Z,14.40
2019-03-24T13:13:26.257Z,14.40
2019-03-24T13:15:58.224Z,14.30
2019-03-24T13:18:28.100Z,14.00
2019-03-24T13:20:57.927Z,14.10
2019-03-24T13:23:27.688Z,14.10
2019-03-24T13:34:39.351Z,14.20
2019-03-24T13:37:12.888Z,14.30
2019-03-24T13:39:43.799Z,14.30
2019-03-24T13:42:13.579Z,14.40
2019-03-24T13:44:46.315Z,14.40
2019-03-24T13:47:16.138Z,14.40
2019-03-24T13:49:45.997Z,14.30
2019-03-24T13:52:15.815Z,14.30
2019-03-24T13:54:46.269Z,14.20
2019-03-24T13:57:18.471Z,14.00
2019-03-24T13:59:48.719Z,13.90
2019-03-24T14:02:25.220Z,13.80
2019-03-24T14:04:54.933Z,13.80
2019-03-24T14:07:24.709Z,13.70
2019-03-24T14:09:54.535Z,13.70
2019-03-24T14:12:25.543Z,13.60
2019-03-24T14:14:55.352Z,13.70
2019-03-24T14:17:25.294Z,13.60
2019-03-24T14:19:56.232Z,13.50
2019-03-24T14:22:26.050Z,13.40
2019-03-24T14:24:56.738Z,13.40
2019-03-24T14:27:26.564Z,13.50
2019-03-24T14:29:56.990Z,13.60
2019-03-24T14:32:27.746Z,13.70
2019-03-24T14:35:00.340Z,13.60
2019-03-24T14:37:30.336Z,13.60
2019-03-24T14:40:00.350Z,13.50
2019-03-24T14:42:30.134Z,13.30
2019-03-24T14:44:59.946Z,13.20
2019-03-24T14:47:29.812Z,13.10
2019-03-24T14:49:59.548Z,13.30
2019-03-24T14:52:29.294Z,13.30
2019-03-24T14:54:59.139Z,13.40
2019-03-24T14:57:28.962Z,13.30
2019-03-24T14:59:59.617Z,13.40
2019-03-24T15:02:29.540Z,13.40
2019-03-24T15:04:59.295Z,13.40
2019-03-24T15:07:29.108Z,13.40
2019-03-24T15:09:59.095Z,13.40
2019-03-24T15:12:30.172Z,13.40
2019-03-24T15:15:01.254Z,13.40
2019-03-24T15:17:31.087Z,13.20
2019-03-24T15:20:00.985Z,13.20
2019-03-24T15:22:33.399Z,13.30
2019-03-24T15:25:03.334Z,13.10
2019-03-24T15:27:33.274Z,12.90
2019-03-24T15:30:05.179Z,12.80
2019-03-24T15:32:35.170Z,12.80
2019-03-24T15:35:05.045Z,12.80
2019-03-24T15:37:35.000Z,12.80
2019-03-24T15:40:05.271Z,12.80
2019-03-24T15:42:35.053Z,12.70
2019-03-24T15:45:12.682Z,12.80
2019-03-24T15:47:42.476Z,12.80
2019-03-24T15:50:12.675Z,12.70
2019-03-24T15:52:45.476Z,12.50
2019-03-24T15:55:15.408Z,12.40
2019-03-24T15:57:45.519Z,12.40
2019-03-24T16:00:18.881Z,12.40
2019-03-24T16:02:48.653Z,12.30
2019-03-24T16:05:18.425Z,12.20
2019-03-24T16:07:48.212Z,12.30
2019-03-24T16:10:18.058Z,12.20
2019-03-24T16:12:47.922Z,12.20
2019-03-24T16:15:17.728Z,12.10
2019-03-24T16:17:47.771Z,12.10
2019-03-24T16:20:17.562Z,12.60
2019-03-24T16:22:47.426Z,13.00
2019-03-24T16:25:17.383Z,13.40
2019-03-24T16:27:47.323Z,13.90
2019-03-24T16:30:17.177Z,13.60
2019-03-24T16:32:47.030Z,13.20
2019-03-24T16:35:16.967Z,12.90
2019-03-24T16:37:50.944Z,12.60
2019-03-24T16:40:20.851Z,12.40
2019-03-24T16:42:50.893Z,12.20
2019-03-24T16:45:20.895Z,12.10
2019-03-24T16:47:50.835Z,12.00
2019-03-24T16:50:26.899Z,12.00
2019-03-24T16:52:54.662Z,11.90
2019-03-24T16:55:24.957Z,11.80
2019-03-24T16:57:54.796Z,11.60
2019-03-24T17:00:28.529Z,11.60
2019-03-24T17:02:58.409Z,11.40
2019-03-24T17:05:28.327Z,11.30
2019-03-24T17:07:58.159Z,11.30
2019-03-24T17:10:27.939Z,11.30
2019-03-24T17:12:57.865Z,11.20
2019-03-24T17:15:27.699Z,11.20
2019-03-24T17:17:59.496Z,11.10
2019-03-24T17:20:30.507Z,11.10
2019-03-24T17:23:01.975Z,11.00
2019-03-24T17:25:31.899Z,11.00
2019-03-24T17:28:04.878Z,10.90
2019-03-24T17:30:34.752Z,10.90
2019-03-24T17:33:05.954Z,10.80
2019-03-24T17:35:35.916Z,10.70
2019-03-24T17:38:05.771Z,10.60
2019-03-24T17:40:39.030Z,10.50
2019-03-24T17:43:07.411Z,10.50
2019-03-24T17:45:37.317Z,10.50
2019-03-24T17:48:07.234Z,10.40
2019-03-24T17:50:37.582Z,10.30
2019-03-24T17:53:07.473Z,10.30
2019-03-24T17:55:38.897Z,10.20
2019-03-24T17:58:08.773Z,10.20
2019-03-24T18:00:50.803Z,10.20
2019-03-24T18:03:28.238Z,10.10
2019-03-24T18:05:59.640Z,10.00
2019-03-24T18:08:30.075Z,10.00
2019-03-24T18:11:02.543Z,10.00
2019-03-24T18:13:34.748Z,10.00
2019-03-24T18:16:08.367Z,9.90
2019-03-24T18:18:42.469Z,9.90
2019-03-24T18:21:13.199Z,9.90
2019-03-24T18:23:55.038Z,9.80
2019-03-24T18:26:25.959Z,9.80
2019-03-24T18:28:56.175Z,9.80
2019-03-24T18:31:30.034Z,9.80
2019-03-24T18:33:59.926Z,9.80
2019-03-24T18:36:29.903Z,9.80
2019-03-24T18:39:03.409Z,9.70
2019-03-24T18:41:42.448Z,9.70
2019-03-24T18:44:12.340Z,9.60
2019-03-24T18:46:44.887Z,9.50
2019-03-24T18:49:23.225Z,9.50
2019-03-24T18:51:54.217Z,9.50
2019-03-24T18:54:27.121Z,9.50
2019-03-24T18:56:59.397Z,9.40
2019-03-24T18:59:28.735Z,9.40
2019-03-24T19:02:03.987Z,9.50
2019-03-24T19:04:36.292Z,9.50
2019-03-24T19:07:14.165Z,9.40
2019-03-24T19:09:43.969Z,9.30
2019-03-24T19:12:14.296Z,9.40
2019-03-24T19:14:48.514Z,9.30
2019-03-24T19:17:18.735Z,9.30
2019-03-24T19:19:52.759Z,9.30
2019-03-24T19:22:33.094Z,9.30
2019-03-24T19:24:57.717Z,9.30
2019-03-24T19:27:28.725Z,9.30
2019-03-24T19:30:01.306Z,9.20
2019-03-24T19:32:31.720Z,9.20
2019-03-24T19:35:01.835Z,9.20
2019-03-24T19:37:33.308Z,9.20
2019-03-24T19:40:04.476Z,9.10
2019-03-24T19:42:35.076Z,9.30
2019-03-24T19:45:07.844Z,9.30
2019-03-24T19:47:37.774Z,9.30
2019-03-24T19:50:08.092Z,9.30
2019-03-24T19:52:44.564Z,9.30
2019-03-24T19:55:09.829Z,9.30
2019-03-24T19:57:42.019Z,9.30
2019-03-24T20:00:12.309Z,9.20
2019-03-24T20:02:42.126Z,9.10
2019-03-24T20:05:12.672Z,9.10
2019-03-24T20:07:48.063Z,9.10
2019-03-24T20:10:19.863Z,9.00
2019-03-24T20:12:53.009Z,9.00
2019-03-24T20:15:23.209Z,9.00
2019-03-24T20:17:53.157Z,9.00
2019-03-24T20:20:23.104Z,9.10
2019-03-24T20:22:56.921Z,9.00
2019-03-24T20:25:25.094Z,9.00
2019-03-24T20:27:57.312Z,8.90
2019-03-24T20:30:27.613Z,8.90
2019-03-24T20:32:57.967Z,9.00
2019-03-24T20:35:30.234Z,9.00
2019-03-24T20:38:02.901Z,9.00
2019-03-24T20:40:36.014Z,8.90
2019-03-24T20:43:10.301Z,9.00
2019-03-24T20:45:44.023Z,8.90
2019-03-24T20:48:14.073Z,8.90
2019-03-24T20:50:44.350Z,8.80
2019-03-24T20:53:18.408Z,8.80
2019-03-24T20:55:47.672Z,8.80
2019-03-24T20:58:17.540Z,8.80
2019-03-24T21:00:47.418Z,8.80
2019-03-24T21:03:17.630Z,8.80
2019-03-24T21:05:47.608Z,8.80
2019-03-24T21:08:21.393Z,8.70
2019-03-24T21:10:51.748Z,8.70
2019-03-24T21:13:22.418Z,8.60
2019-03-24T21:15:53.133Z,8.50
2019-03-24T21:18:23.605Z,8.50
2019-03-24T21:20:55.174Z,8.50
2019-03-24T21:23:29.886Z,8.40
2019-03-24T21:25:57.884Z,8.50
2019-03-24T21:28:28.504Z,8.50
2019-03-24T21:30:58.422Z,8.40
2019-03-24T21:33:28.276Z,8.40
2019-03-24T21:35:59.066Z,8.40
2019-03-24T21:38:32.202Z,8.40
2019-03-24T21:41:02.428Z,8.30
2019-03-24T21:43:33.552Z,8.20
2019-03-24T21:46:04.874Z,8.20
2019-03-24T21:48:37.156Z,8.20
2019-03-24T21:51:11.293Z,8.20
2019-03-24T21:53:41.264Z,8.10
2019-03-24T21:56:14.016Z,8.10
2019-03-24T21:58:45.723Z,8.00
2019-03-24T22:01:16.878Z,8.00
2019-03-24T22:03:47.256Z,8.00
2019-03-24T22:06:22.217Z,8.10
2019-03-24T22:08:52.577Z,8.10
2019-03-24T22:11:23.986Z,8.20
2019-03-24T22:13:54.574Z,8.10
2019-03-24T22:16:25.299Z,8.10
2019-03-24T22:18:55.214Z,8.00
2019-03-24T22:21:27.446Z,8.00
2019-03-24T22:23:58.722Z,8.00
2019-03-24T22:26:33.732Z,8.10
2019-03-24T22:29:03.764Z,8.00
2019-03-24T22:31:35.148Z,7.90
2019-03-24T22:34:05.230Z,7.90
2019-03-24T22:36:35.247Z,7.80
2019-03-24T22:39:07.585Z,7.80
2019-03-24T22:41:38.638Z,7.90
2019-03-24T22:44:09.038Z,7.80
2019-03-24T22:46:38.825Z,7.90
2019-03-24T22:49:11.428Z,7.80
2019-03-24T22:51:41.574Z,7.80
2019-03-24T22:54:12.362Z,7.70
2019-03-24T22:56:42.378Z,7.70
2019-03-24T22:59:15.688Z,7.70
2019-03-24T23:01:46.686Z,7.70
2019-03-24T23:04:17.610Z,7.70
2019-03-24T23:06:48.011Z,7.60
2019-03-24T23:09:18.173Z,7.60
2019-03-24T23:11:49.672Z,7.60
2019-03-24T23:14:24.167Z,7.50
2019-03-24T23:16:57.902Z,7.40
2019-03-24T23:19:28.721Z,7.40
2019-03-24T23:21:58.755Z,7.40
2019-03-24T23:24:28.530Z,7.30
2019-03-24T23:26:58.332Z,7.30
2019-03-24T23:29:28.777Z,7.30
2019-03-24T23:31:59.087Z,7.20
2019-03-24T23:34:29.058Z,7.10
2019-03-24T23:36:59.130Z,7.10
2019-03-24T23:39:29.240Z,7.10
2019-03-24T23:41:59.066Z,7.10
2019-03-24T23:44:30.917Z,7.10
2019-03-24T23:47:01.787Z,7.10
2019-03-24T23:49:34.576Z,7.10
2019-03-24T23:52:05.632Z,7.20
2019-03-24T23:54:36.557Z,7.10
2019-03-24T23:57:07.179Z,7.20
2019-03-24T23:59:38.147Z,7.20
